Time;durP1;ratioP1;P1;durP2;ratioP2;P2;SDS_P1;SDS_P2;PMS_P1;PMS_P2;Temp;Humidity;BMP_temperature;BMP_pressure;BME280_temperature;BME280_humidity;BME280_pressure;Samples;Min_cycle;Max_cycle;Signal;HPM_P1;HPM_P2
2022/11/20 00:01:14;;;;;;;12.60;11.07;;;2.80;99.90;;;;;;5028741;28;20472;-52
2022/11/20 00:03:43;;;;;;;11.30;10.03;;;2.80;99.90;;;;;;5034445;28;20874;-52
2022/11/20 00:06:13;;;;;;;12.40;10.00;;;2.70;99.90;;;;;;5034668;28;20491;-53
2022/11/20 00:08:43;;;;;;;10.07;8.20;;;2.60;99.90;;;;;;5034390;28;20456;-51
2022/11/20 00:11:18;;;;;;;9.70;7.23;;;2.60;99.90;;;;;;5046039;28;20823;-53
2022/11/20 00:13:47;;;;;;;9.40;7.27;;;2.70;99.90;;;;;;5037190;28;20469;-51
2022/11/20 00:16:18;;;;;;;8.67;7.37;;;2.60;99.90;;;;;;5034820;28;20468;-50
2022/11/20 00:18:47;;;;;;;7.93;5.97;;;2.50;99.90;;;;;;5034646;28;20453;-48
2022/11/20 00:21:16;;;;;;;8.03;6.00;;;2.50;99.90;;;;;;5034375;28;20460;-52
2022/11/20 00:23:45;;;;;;;9.93;5.73;;;2.50;99.90;;;;;;5034438;28;20481;-50
2022/11/20 00:26:16;;;;;;;8.33;6.90;;;2.60;99.90;;;;;;5034514;28;20484;-50
2022/11/20 00:28:45;;;;;;;8.67;7.87;;;2.50;99.90;;;;;;5033657;28;20465;-51
2022/11/20 00:31:15;;;;;;;9.60;7.00;;;2.40;99.90;;;;;;5034722;28;20849;-49
2022/11/20 00:33:44;;;;;;;6.57;5.70;;;2.40;99.90;;;;;;5034005;28;20465;-52
2022/11/20 00:36:15;;;;;;;6.77;5.20;;;2.40;99.90;;;;;;5034452;28;20469;-49
2022/11/20 00:38:44;;;;;;;6.90;5.13;;;2.60;99.90;;;;;;5033847;28;20956;-52
2022/11/20 00:41:14;;;;;;;5.20;4.70;;;2.60;99.90;;;;;;5044861;28;20467;-50
2022/11/20 00:43:44;;;;;;;5.80;4.50;;;2.70;99.90;;;;;;5037437;28;20471;-49
2022/11/20 00:46:15;;;;;;;5.43;4.77;;;2.60;99.90;;;;;;5034095;28;20487;-52
2022/11/20 00:48:43;;;;;;;6.70;5.00;;;2.60;99.90;;;;;;5033996;28;20939;-51
2022/11/20 00:51:13;;;;;;;6.23;4.77;;;2.60;99.90;;;;;;5032999;28;20470;-53
2022/11/20 00:53:41;;;;;;;5.20;4.13;;;2.50;99.90;;;;;;5033587;28;20471;-53
2022/11/20 00:56:13;;;;;;;6.70;4.60;;;2.60;99.90;;;;;;5034059;28;20520;-52
2022/11/20 00:58:44;;;;;;;5.03;4.47;;;2.60;99.90;;;;;;5033748;28;20483;-51
2022/11/20 01:01:14;;;;;;;6.70;5.00;;;2.60;99.90;;;;;;5033919;28;20473;-52
2022/11/20 01:03:44;;;;;;;6.23;4.90;;;2.50;99.90;;;;;;5033257;28;21012;-50
2022/11/20 01:06:15;;;;;;;6.27;4.63;;;2.40;99.90;;;;;;5033773;28;20474;-49
2022/11/20 01:08:43;;;;;;;6.73;4.60;;;2.50;99.90;;;;;;5033331;28;20473;-48
2022/11/20 01:11:12;;;;;;;6.10;4.70;;;2.50;99.90;;;;;;5044491;28;20471;-53
2022/11/20 01:13:42;;;;;;;6.00;4.87;;;2.50;99.90;;;;;;5036916;28;20465;-51
2022/11/20 01:16:13;;;;;;;5.60;4.90;;;2.50;99.90;;;;;;5033249;28;20472;-51
2022/11/20 01:18:43;;;;;;;9.73;4.63;;;2.50;99.90;;;;;;5033459;28;20892;-50
2022/11/20 01:21:14;;;;;;;6.03;4.70;;;2.40;99.90;;;;;;5033282;28;20476;-51
2022/11/20 01:23:43;;;;;;;6.00;4.60;;;2.40;99.90;;;;;;5033350;28;20967;-49
2022/11/20 01:26:13;;;;;;;6.43;4.70;;;2.40;99.90;;;;;;5033378;28;20473;-49
2022/11/20 01:28:41;;;;;;;5.60;4.50;;;2.40;99.90;;;;;;5033017;28;20461;-52
2022/11/20 01:31:15;;;;;;;7.13;5.13;;;2.60;99.90;;;;;;5033439;28;20529;-51
2022/11/20 01:33:44;;;;;;;5.73;4.90;;;2.60;99.90;;;;;;5032698;28;20478;-50
2022/11/20 01:36:13;;;;;;;8.43;4.87;;;2.60;99.90;;;;;;5033356;28;20474;-52
2022/11/20 01:38:42;;;;;;;6.23;4.93;;;2.70;99.90;;;;;;5032570;28;20479;-54
2022/11/20 01:43:20;;;;;;;8.60;5.10;;;2.60;99.90;;;;;;5043384;28;20524;-51
2022/11/20 01:43:59;;;;;;;5.63;4.90;;;2.60;99.90;;;;;;5036043;28;20467;-53
2022/11/20 01:46:28;;;;;;;5.77;4.90;;;2.60;99.90;;;;;;5032922;28;20860;-50
2022/11/20 01:49:02;;;;;;;8.30;4.90;;;2.50;99.90;;;;;;5032895;28;20467;-49
2022/11/20 01:51:34;;;;;;;8.13;5.07;;;2.70;99.90;;;;;;5032705;28;20476;-52
2022/11/20 01:54:06;;;;;;;6.63;5.07;;;2.70;99.90;;;;;;5033009;28;20490;-49
2022/11/20 01:56:39;;;;;;;5.27;4.60;;;2.60;99.90;;;;;;5032731;28;20464;-53
2022/11/20 01:59:10;;;;;;;7.30;4.97;;;2.70;99.90;;;;;;5033083;28;20479;-48
2022/11/20 02:01:40;;;;;;;5.40;4.13;;;2.70;99.90;;;;;;5032823;28;20836;-49
2022/11/20 02:04:09;;;;;;;8.07;5.07;;;2.80;99.90;;;;;;5032710;28;21077;-49
2022/11/20 02:06:41;;;;;;;6.43;4.73;;;2.60;99.90;;;;;;5032445;28;20866;-51
2022/11/20 02:09:10;;;;;;;6.37;4.70;;;2.70;99.90;;;;;;5032961;28;20471;-51
2022/11/20 02:11:38;;;;;;;6.67;4.53;;;2.60;99.90;;;;;;5046965;28;20469;-54
2022/11/20 02:14:05;;;;;;;5.33;4.60;;;2.80;99.90;;;;;;5032773;28;20453;-51
2022/11/20 02:16:38;;;;;;;5.53;4.50;;;2.60;99.90;;;;;;5032437;28;20470;-52
2022/11/20 02:19:14;;;;;;;5.60;4.73;;;2.50;99.90;;;;;;5032582;28;20465;-52
2022/11/20 02:21:49;;;;;;;6.90;4.70;;;2.70;99.90;;;;;;5032637;28;20469;-52
2022/11/20 02:24:20;;;;;;;7.90;4.50;;;2.60;99.90;;;;;;5032892;28;20526;-51
2022/11/20 02:26:52;;;;;;;8.47;5.00;;;2.50;99.90;;;;;;5032507;28;20964;-51
2022/11/20 02:29:26;;;;;;;6.43;4.43;;;2.70;99.90;;;;;;5032269;28;20468;-50
2022/11/20 02:31:56;;;;;;;6.57;5.00;;;2.60;99.90;;;;;;5032989;28;20483;-48
2022/11/20 02:34:24;;;;;;;7.23;5.00;;;2.70;99.90;;;;;;5032654;28;20464;-49
2022/11/20 02:36:53;;;;;;;6.90;5.17;;;2.60;99.90;;;;;;5031929;28;20483;-51
2022/11/20 02:39:25;;;;;;;6.07;5.07;;;2.50;99.90;;;;;;5032259;28;20471;-52
2022/11/20 02:41:54;;;;;;;5.57;4.33;;;2.40;99.90;;;;;;5044064;28;21021;-50
2022/11/20 02:44:22;;;;;;;5.30;4.43;;;2.50;99.90;;;;;;5038533;28;20675;-52
2022/11/20 02:46:50;;;;;;;5.27;4.37;;;2.50;99.90;;;;;;5032779;28;20498;-53
2022/11/20 02:49:18;;;;;;;5.77;4.43;;;2.40;99.90;;;;;;5032569;28;20994;-51
2022/11/20 02:51:47;;;;;;;6.17;4.67;;;2.40;99.90;;;;;;5032314;28;20476;-50
2022/11/20 02:54:15;;;;;;;5.90;4.60;;;2.50;99.90;;;;;;5032311;28;20986;-52
2022/11/20 02:56:44;;;;;;;5.10;4.60;;;2.50;99.90;;;;;;5032066;28;20467;-49
2022/11/20 02:59:13;;;;;;;5.70;4.47;;;2.40;99.90;;;;;;5032327;28;20474;-51
2022/11/20 03:01:41;;;;;;;6.37;4.90;;;2.40;99.90;;;;;;5032534;28;20471;-52
2022/11/20 03:04:09;;;;;;;6.23;4.83;;;2.60;99.90;;;;;;5012434;28;20476;-51
2022/11/20 03:06:37;;;;;;;6.83;4.50;;;2.60;99.90;;;;;;5012099;28;20535;-50
2022/11/20 03:09:08;;;;;;;5.67;4.50;;;2.60;99.90;;;;;;5012560;28;20884;-52
2022/11/20 03:11:36;;;;;;;6.37;4.83;;;2.60;99.90;;;;;;5040429;28;20516;-49
2022/11/20 03:14:06;;;;;;;6.37;4.00;;;2.70;99.90;;;;;;5035196;28;20507;-51
2022/11/20 03:16:34;;;;;;;6.93;5.07;;;2.60;99.90;;;;;;5035609;28;20999;-51
2022/11/20 03:19:02;;;;;;;6.13;5.37;;;2.70;99.90;;;;;;5035892;28;20841;-51
2022/11/20 03:21:30;;;;;;;6.17;5.30;;;2.80;99.90;;;;;;5035567;28;20523;-49
2022/11/20 03:23:58;;;;;;;6.33;4.93;;;2.70;99.90;;;;;;5035403;28;20472;-52
2022/11/20 03:26:27;;;;;;;7.00;5.43;;;2.70;99.90;;;;;;5035525;28;20834;-51
2022/11/20 03:28:57;;;;;;;7.00;4.80;;;2.80;99.90;;;;;;5035149;28;20480;-53
2022/11/20 03:31:28;;;;;;;7.03;5.00;;;2.70;99.90;;;;;;5035798;28;21011;-50
2022/11/20 03:33:57;;;;;;;5.90;5.03;;;2.80;99.90;;;;;;5035187;28;20473;-49
2022/11/20 03:36:26;;;;;;;6.23;5.30;;;2.80;99.90;;;;;;5034816;28;20477;-53
2022/11/20 03:38:55;;;;;;;6.47;5.20;;;2.70;99.90;;;;;;5035308;28;20480;-49
2022/11/20 03:41:25;;;;;;;8.10;4.77;;;2.50;99.90;;;;;;5048078;28;21253;-52
2022/11/20 03:43:55;;;;;;;5.33;4.77;;;2.60;99.90;;;;;;5039188;28;20850;-51
2022/11/20 03:46:24;;;;;;;7.60;5.00;;;2.60;99.90;;;;;;5035029;28;20519;-52
2022/11/20 03:48:53;;;;;;;6.27;4.70;;;2.70;99.90;;;;;;5035181;28;20495;-52
2022/11/20 03:51:23;;;;;;;5.53;4.73;;;2.70;99.90;;;;;;5035062;28;20798;-52
2022/11/20 03:53:54;;;;;;;6.47;5.07;;;2.60;99.90;;;;;;5034920;28;20519;-51
2022/11/20 03:56:25;;;;;;;6.30;5.00;;;2.70;99.90;;;;;;5035063;28;20457;-50
2022/11/20 03:58:53;;;;;;;6.40;5.00;;;2.70;99.90;;;;;;5034642;28;20828;-51
2022/11/20 04:01:24;;;;;;;6.97;5.07;;;2.50;99.90;;;;;;5035377;28;20478;-52
2022/11/20 04:03:56;;;;;;;6.20;5.27;;;2.40;99.90;;;;;;5034382;28;20499;-51
2022/11/20 04:06:28;;;;;;;5.57;4.80;;;2.50;99.90;;;;;;5034516;28;20473;-49
2022/11/20 04:08:59;;;;;;;5.80;4.93;;;2.50;99.90;;;;;;5034531;28;20547;-52
2022/11/20 04:11:30;;;;;;;5.70;4.93;;;2.40;99.90;;;;;;5047518;28;21028;-51
2022/11/20 04:14:01;;;;;;;5.73;5.10;;;2.50;99.90;;;;;;5037451;28;20499;-50
2022/11/20 04:16:36;;;;;;;7.77;5.80;;;2.60;99.90;;;;;;5034289;28;20459;-52
2022/11/20 04:19:12;;;;;;;6.90;5.57;;;2.50;99.90;;;;;;5034445;28;20472;-51
2022/11/20 04:21:42;;;;;;;5.97;4.63;;;2.60;99.90;;;;;;5034296;28;20459;-51
2022/11/20 04:24:11;;;;;;;6.33;5.20;;;2.70;99.90;;;;;;5034457;28;20983;-49
2022/11/20 04:26:41;;;;;;;7.13;5.57;;;2.70;99.90;;;;;;5034074;28;20478;-51
2022/11/20 04:29:12;;;;;;;7.17;5.33;;;2.60;99.90;;;;;;5034048;28;20492;-50
2022/11/20 04:31:44;;;;;;;7.23;5.20;;;2.50;99.90;;;;;;5034600;28;20509;-51
2022/11/20 04:34:15;;;;;;;6.43;4.87;;;2.60;99.90;;;;;;5034208;28;20971;-52
2022/11/20 04:36:44;;;;;;;6.23;5.30;;;2.50;99.90;;;;;;5034370;28;20879;-51
2022/11/20 04:39:15;;;;;;;6.03;4.77;;;2.50;99.90;;;;;;5034186;28;20456;-51
2022/11/20 04:41:44;;;;;;;5.70;4.50;;;2.60;99.90;;;;;;5041595;28;20557;-51
2022/11/20 04:44:14;;;;;;;7.00;4.70;;;2.60;99.90;;;;;;5030289;28;20481;-52
2022/11/20 04:46:44;;;;;;;5.63;4.80;;;2.70;99.90;;;;;;5033709;28;20517;-50
2022/11/20 04:49:15;;;;;;;6.27;5.57;;;2.70;99.90;;;;;;5033797;28;20920;-50
2022/11/20 04:51:44;;;;;;;5.73;5.10;;;2.70;99.90;;;;;;5033736;28;20479;-48
2022/11/20 04:54:14;;;;;;;6.77;4.97;;;2.70;99.90;;;;;;5033792;28;20983;-50
2022/11/20 04:56:43;;;;;;;7.47;5.57;;;2.70;99.90;;;;;;5033598;28;20478;-52
2022/11/20 04:59:13;;;;;;;8.33;4.90;;;2.70;99.90;;;;;;5033572;28;20468;-52
2022/11/20 05:01:42;;;;;;;5.90;5.17;;;2.70;99.90;;;;;;5034001;28;20474;-52
2022/11/20 05:04:12;;;;;;;6.50;4.83;;;2.70;99.90;;;;;;5033504;28;20546;-51
2022/11/20 05:06:43;;;;;;;4.93;4.43;;;2.70;99.90;;;;;;5033638;28;20471;-50
2022/11/20 05:09:13;;;;;;;5.43;4.40;;;2.80;99.90;;;;;;5033509;28;20495;-50
2022/11/20 05:11:42;;;;;;;6.63;5.20;;;2.80;99.90;;;;;;5048169;28;20538;-52
2022/11/20 05:14:16;;;;;;;7.40;5.53;;;2.80;99.90;;;;;;5035245;28;20473;-53
2022/11/20 05:16:45;;;;;;;6.97;5.63;;;2.70;99.90;;;;;;5033175;28;20481;-50
2022/11/20 05:19:14;;;;;;;8.67;5.13;;;2.60;99.90;;;;;;5033486;28;20474;-51
2022/11/20 05:21:43;;;;;;;6.83;5.20;;;2.60;99.90;;;;;;5036742;28;20522;-52
2022/11/20 05:24:11;;;;;;;5.80;5.17;;;2.50;99.90;;;;;;5033360;28;20463;-49
2022/11/20 05:26:39;;;;;;;7.07;5.10;;;2.60;99.90;;;;;;5032812;28;20473;-52
2022/11/20 05:29:07;;;;;;;6.03;5.10;;;2.60;99.90;;;;;;5033146;28;20491;-50
2022/11/20 05:31:37;;;;;;;5.30;4.70;;;2.80;99.90;;;;;;5033321;28;20476;-52
2022/11/20 05:34:05;;;;;;;8.93;4.93;;;2.80;99.90;;;;;;5033363;28;20866;-50
2022/11/20 05:36:33;;;;;;;7.77;6.27;;;2.90;99.90;;;;;;5032557;28;20476;-51
2022/11/20 05:39:03;;;;;;;8.37;5.70;;;2.90;99.90;;;;;;5033269;28;20461;-50
2022/11/20 05:41:31;;;;;;;6.80;5.90;;;2.80;99.90;;;;;;5033168;28;20483;-52
2022/11/20 05:43:59;;;;;;;6.93;5.40;;;2.70;99.90;;;;;;5034496;28;20476;-53
2022/11/20 05:46:27;;;;;;;5.97;4.77;;;2.70;99.90;;;;;;5032459;28;20471;-52
2022/11/20 05:48:58;;;;;;;6.60;5.33;;;2.80;99.90;;;;;;5033033;28;20519;-49
2022/11/20 05:51:27;;;;;;;7.07;5.50;;;2.80;99.90;;;;;;5046473;28;20469;-52
2022/11/20 05:53:58;;;;;;;8.13;5.73;;;2.70;99.90;;;;;;5051056;28;20878;-50
2022/11/20 05:56:28;;;;;;;6.10;5.50;;;2.70;99.90;;;;;;5052572;28;20470;-49
2022/11/20 05:58:57;;;;;;;7.17;5.67;;;2.60;99.90;;;;;;5036771;28;20475;-52
2022/11/20 06:01:26;;;;;;;5.93;5.33;;;2.60;99.90;;;;;;5033108;28;20478;-52
2022/11/20 06:03:55;;;;;;;7.20;6.00;;;2.60;99.90;;;;;;5032802;28;20852;-50
2022/11/20 06:06:23;;;;;;;6.17;5.27;;;2.60;99.90;;;;;;5032954;28;20467;-50
2022/11/20 06:08:51;;;;;;;7.97;5.90;;;2.50;99.90;;;;;;5032603;28;20488;-52
2022/11/20 06:11:19;;;;;;;6.40;5.10;;;2.50;99.90;;;;;;5032763;28;20515;-48
2022/11/20 06:13:49;;;;;;;5.60;4.93;;;2.50;99.90;;;;;;5034451;28;20482;-52
2022/11/20 06:16:19;;;;;;;5.67;4.80;;;2.50;99.90;;;;;;5032524;28;20485;-50
2022/11/20 06:18:47;;;;;;;7.57;5.67;;;2.50;99.90;;;;;;5032202;28;20475;-50
2022/11/20 06:21:17;;;;;;;7.33;5.07;;;2.60;99.90;;;;;;5046284;28;20458;-52
2022/11/20 06:23:45;;;;;;;5.93;5.33;;;2.60;99.90;;;;;;5049118;28;20494;-51
2022/11/20 06:26:15;;;;;;;6.20;4.90;;;2.60;99.90;;;;;;5052604;28;20503;-53
2022/11/20 06:28:43;;;;;;;6.03;5.17;;;2.70;99.90;;;;;;5052075;28;20472;-51
2022/11/20 06:31:14;;;;;;;6.63;5.83;;;2.50;99.90;;;;;;5039663;28;20477;-54
2022/11/20 06:33:43;;;;;;;8.57;5.57;;;2.70;99.90;;;;;;5032426;28;20468;-50
2022/11/20 06:36:12;;;;;;;5.57;4.93;;;2.50;99.90;;;;;;5032660;28;20467;-54
2022/11/20 06:38:41;;;;;;;7.27;5.27;;;2.60;99.90;;;;;;5032472;28;20990;-51
2022/11/20 06:41:12;;;;;;;6.10;5.47;;;2.60;99.90;;;;;;5032428;28;20477;-51
2022/11/20 06:43:40;;;;;;;8.20;5.90;;;2.60;99.90;;;;;;5034184;28;20461;-50
2022/11/20 06:46:10;;;;;;;6.30;5.37;;;2.60;99.90;;;;;;5032427;28;20499;-50
2022/11/20 06:48:40;;;;;;;7.70;6.00;;;2.60;99.90;;;;;;5032074;28;20480;-52
2022/11/20 06:51:09;;;;;;;7.40;6.70;;;2.60;99.90;;;;;;5047777;28;20492;-52
2022/11/20 06:53:37;;;;;;;8.40;6.40;;;2.70;99.90;;;;;;5040248;28;20848;-53
2022/11/20 06:56:06;;;;;;;10.00;7.20;;;2.80;99.90;;;;;;5036192;28;20496;-50
2022/11/20 06:58:35;;;;;;;9.30;6.87;;;2.80;99.90;;;;;;5036130;28;20475;-49
2022/11/20 07:01:05;;;;;;;7.37;6.00;;;2.80;99.90;;;;;;5036418;28;21010;-52
2022/11/20 07:03:33;;;;;;;6.97;6.00;;;2.90;99.90;;;;;;5035560;28;20477;-50
2022/11/20 07:06:03;;;;;;;8.80;6.80;;;2.90;99.90;;;;;;5035868;28;20867;-51
2022/11/20 07:08:32;;;;;;;8.83;6.90;;;2.80;99.90;;;;;;5035659;28;20473;-50
2022/11/20 07:11:01;;;;;;;10.60;5.73;;;2.60;99.90;;;;;;5035595;28;20489;-52
2022/11/20 07:13:29;;;;;;;7.37;6.20;;;2.70;99.90;;;;;;5037254;28;20465;-51
2022/11/20 07:16:01;;;;;;;7.83;6.40;;;2.60;99.90;;;;;;5035497;28;20473;-52
2022/11/20 07:18:29;;;;;;;9.13;7.10;;;2.50;99.90;;;;;;5035257;28;20465;-50
2022/11/20 07:21:00;;;;;;;9.23;6.07;;;2.60;99.90;;;;;;5049203;28;20971;-50
2022/11/20 07:23:29;;;;;;;6.83;6.10;;;2.50;99.90;;;;;;5049553;28;20475;-52
2022/11/20 07:25:57;;;;;;;7.23;5.77;;;2.50;99.90;;;;;;5055488;28;20854;-51
2022/11/20 07:28:26;;;;;;;8.17;6.40;;;2.50;99.90;;;;;;5055255;28;20459;-51
2022/11/20 07:30:54;;;;;;;7.47;6.03;;;2.50;99.90;;;;;;5045267;28;20478;-50
2022/11/20 07:33:22;;;;;;;6.77;6.00;;;2.40;99.90;;;;;;5035288;28;20523;-51
2022/11/20 07:35:50;;;;;;;6.93;6.00;;;2.50;99.90;;;;;;5035579;28;20617;-52
2022/11/20 07:38:18;;;;;;;7.43;5.70;;;2.50;99.90;;;;;;5034968;28;20469;-50
2022/11/20 07:40:48;;;;;;;6.97;5.87;;;2.60;99.90;;;;;;5034933;28;20465;-50
2022/11/20 07:43:17;;;;;;;7.37;6.43;;;2.80;99.90;;;;;;5037133;28;20475;-53
2022/11/20 07:45:45;;;;;;;7.33;6.03;;;2.70;99.90;;;;;;5034793;28;20852;-51
2022/11/20 07:48:13;;;;;;;6.80;6.10;;;2.60;99.90;;;;;;5035334;28;20991;-49
2022/11/20 07:50:41;;;;;;;7.03;5.60;;;2.50;99.90;;;;;;5047905;28;21012;-49
2022/11/20 07:53:09;;;;;;;6.03;5.27;;;2.50;99.90;;;;;;5037276;28;20474;-51
2022/11/20 07:55:37;;;;;;;6.57;5.47;;;2.40;99.90;;;;;;5036852;28;20591;-52
2022/11/20 07:58:06;;;;;;;6.40;5.60;;;2.40;99.90;;;;;;5034942;28;20469;-49
2022/11/20 08:00:34;;;;;;;6.53;5.10;;;2.30;99.90;;;;;;5023213;28;20472;-51
2022/11/20 08:03:04;;;;;;;5.83;4.97;;;2.30;99.90;;;;;;5035055;28;20477;-52
2022/11/20 08:05:32;;;;;;;5.47;4.93;;;2.30;99.90;;;;;;5034160;28;20487;-49
2022/11/20 08:08:00;;;;;;;6.57;4.97;;;2.30;99.90;;;;;;5035028;28;20491;-49
2022/11/20 08:10:28;;;;;;;6.43;4.93;;;2.40;99.90;;;;;;5034690;28;20925;-49
2022/11/20 08:15:50;;;;;;;7.53;5.07;;;2.50;99.90;;;;;;5034284;28;20952;-48
2022/11/20 08:18:18;;;;;;;6.63;4.87;;;2.60;99.90;;;;;;5034465;28;20478;-51
2022/11/20 08:21:04;;;;;;;7.40;4.80;;;2.60;99.90;;;;;;5048155;28;20467;-51
2022/11/20 08:23:33;;;;;;;5.77;5.10;;;2.70;99.90;;;;;;5044236;28;20474;-52
2022/11/20 08:26:01;;;;;;;5.43;4.67;;;2.80;99.90;;;;;;5049835;28;20494;-53
2022/11/20 08:28:29;;;;;;;6.60;5.23;;;2.80;99.90;;;;;;5054273;28;20528;-51
2022/11/20 08:31:00;;;;;;;6.70;5.30;;;3.00;99.90;;;;;;5043462;28;20477;-52
2022/11/20 08:33:29;;;;;;;9.63;6.47;;;3.10;99.90;;;;;;5035999;28;20475;-49
2022/11/20 08:36:00;;;;;;;7.27;5.53;;;3.40;99.90;;;;;;5042673;28;20457;-52
2022/11/20 08:38:28;;;;;;;5.73;5.00;;;3.50;99.90;;;;;;5034459;28;20463;-50
2022/11/20 08:43:43;;;;;;;6.07;4.70;;;3.70;99.90;;;;;;5033869;28;20475;-49
2022/11/20 08:46:13;;;;;;;6.03;4.83;;;3.70;99.90;;;;;;5036857;28;20470;-52
2022/11/20 08:48:41;;;;;;;7.17;4.97;;;3.80;99.90;;;;;;5043632;28;20864;-51
2022/11/20 08:51:09;;;;;;;5.10;4.23;;;3.80;99.90;;;;;;5045021;28;20996;-53
2022/11/20 08:53:37;;;;;;;7.17;4.57;;;3.90;99.90;;;;;;5043057;28;20479;-52
2022/11/20 08:56:06;;;;;;;6.20;5.17;;;4.10;99.90;;;;;;5042286;28;20481;-53
2022/11/20 08:58:34;;;;;;;6.00;4.60;;;4.10;99.90;;;;;;5041528;28;20476;-53
2022/11/20 09:01:24;;;;;;;5.77;4.57;;;4.20;99.90;;;;;;5040604;28;20470;-51
2022/11/20 09:03:53;;;;;;;5.10;4.40;;;4.20;99.90;;;;;;5033474;28;20484;-53
2022/11/20 09:06:21;;;;;;;5.17;3.93;;;4.10;99.90;;;;;;5033775;28;21058;-50
2022/11/20 09:08:53;;;;;;;4.77;4.00;;;4.10;99.90;;;;;;5033166;28;20468;-49
2022/11/20 09:11:21;;;;;;;6.43;4.10;;;4.20;99.90;;;;;;5033105;28;20510;-51
2022/11/20 09:13:49;;;;;;;4.47;4.07;;;4.30;99.90;;;;;;5033355;28;20461;-50
2022/11/20 09:16:17;;;;;;;6.43;4.50;;;4.30;99.90;;;;;;5033628;28;20474;-49
2022/11/20 09:18:46;;;;;;;4.43;4.03;;;4.40;99.90;;;;;;5033607;28;20475;-51
2022/11/20 09:21:34;;;;;;;4.77;4.17;;;4.60;99.90;;;;;;5039654;28;20474;-49
2022/11/20 09:24:02;;;;;;;6.97;4.00;;;4.60;99.90;;;;;;5032736;28;20471;-54
2022/11/20 09:26:30;;;;;;;5.97;4.73;;;4.70;99.90;;;;;;5032917;28;20528;-51
2022/11/20 09:28:58;;;;;;;4.70;4.20;;;4.80;99.90;;;;;;5033142;28;20478;-53
2022/11/20 09:31:26;;;;;;;5.53;4.37;;;5.00;99.90;;;;;;5033339;28;20531;-48
2022/11/20 09:33:56;;;;;;;4.40;4.00;;;5.00;99.90;;;;;;5033381;28;20463;-52
2022/11/20 09:36:24;;;;;;;4.40;4.00;;;5.20;99.90;;;;;;5033014;28;20471;-54
2022/11/20 09:38:52;;;;;;;4.63;4.23;;;5.20;99.90;;;;;;5032946;28;20532;-50
2022/11/20 09:41:39;;;;;;;4.97;4.40;;;5.10;99.90;;;;;;5030806;28;20487;-52
2022/11/20 09:44:19;;;;;;;5.83;4.43;;;5.10;99.90;;;;;;5025937;28;21021;-50
2022/11/20 09:46:56;;;;;;;5.10;4.10;;;5.40;99.90;;;;;;5026885;28;20467;-52
2022/11/20 09:49:34;;;;;;;5.67;4.30;;;5.50;99.90;;;;;;5026946;28;20572;-50
2022/11/20 09:52:17;;;;;;;4.77;4.37;;;5.60;99.90;;;;;;5025954;28;20997;-53
2022/11/20 09:54:45;;;;;;;5.43;4.93;;;5.80;99.90;;;;;;5026737;28;20528;-52
2022/11/20 09:57:19;;;;;;;4.77;4.30;;;6.20;99.90;;;;;;5027266;28;20492;-51
2022/11/20 09:59:51;;;;;;;4.60;4.20;;;6.40;99.90;;;;;;5027386;28;20474;-51
2022/11/20 10:02:30;;;;;;;4.73;4.27;;;6.60;99.90;;;;;;5026968;28;20532;-52
2022/11/20 10:05:07;;;;;;;5.40;4.60;;;6.40;99.90;;;;;;5027053;28;20243;-51
2022/11/20 10:07:40;;;;;;;6.17;4.33;;;6.40;99.90;;;;;;5027422;28;20474;-53
2022/11/20 10:10:16;;;;;;;5.53;4.67;;;6.10;99.90;;;;;;5027409;28;20591;-52
2022/11/20 10:12:59;;;;;;;4.97;4.47;;;5.90;99.90;;;;;;5027238;28;21194;-52
2022/11/20 10:15:39;;;;;;;5.00;4.50;;;5.70;99.90;;;;;;5027984;28;20615;-52
2022/11/20 10:18:24;;;;;;;5.00;4.50;;;5.60;99.90;;;;;;5027122;28;20466;-50
2022/11/20 10:21:02;;;;;;;5.30;4.87;;;5.50;99.90;;;;;;5027106;28;20236;-53
2022/11/20 10:24:00;;;;;;;5.23;4.80;;;5.40;99.90;;;;;;5028862;28;20474;-50
2022/11/20 10:26:39;;;;;;;5.60;5.10;;;5.40;99.90;;;;;;5030902;28;20474;-50
2022/11/20 10:29:13;;;;;;;6.03;4.80;;;5.50;99.90;;;;;;5031134;28;20517;-50
2022/11/20 10:31:43;;;;;;;5.20;4.70;;;5.70;99.90;;;;;;5031388;28;20282;-51
2022/11/20 10:34:26;;;;;;;5.60;5.10;;;5.90;99.90;;;;;;5031301;28;20228;-50
2022/11/20 10:37:03;;;;;;;5.03;4.53;;;6.20;99.90;;;;;;5031125;28;20227;-53
2022/11/20 10:39:37;;;;;;;4.87;4.47;;;6.30;99.90;;;;;;5030615;28;20230;-51
2022/11/20 10:42:11;;;;;;;5.07;4.20;;;6.40;99.90;;;;;;5030086;28;20281;-52
2022/11/20 10:45:02;;;;;;;5.10;4.10;;;6.40;99.90;;;;;;5030911;28;20471;-50
2022/11/20 10:47:34;;;;;;;5.23;4.60;;;6.30;99.90;;;;;;5030958;28;20474;-53
2022/11/20 10:50:05;;;;;;;3.77;3.47;;;6.30;99.90;;;;;;5030155;28;20474;-52
2022/11/20 10:52:43;;;;;;;4.47;4.07;;;6.20;99.90;;;;;;5031711;28;20229;-51
2022/11/20 10:55:30;;;;;;;3.97;3.57;;;6.20;99.90;;;;;;5030772;28;20996;-49
2022/11/20 10:58:04;;;;;;;4.30;3.90;;;6.20;99.90;;;;;;5030520;28;20231;-50
2022/11/20 11:00:32;;;;;;;3.93;3.60;;;6.10;99.90;;;;;;5030232;28;20246;-49
2022/11/20 11:03:02;;;;;;;4.60;3.60;;;6.00;99.90;;;;;;5030301;28;20465;-51
2022/11/20 11:05:39;;;;;;;3.80;3.40;;;5.90;99.90;;;;;;5030151;28;20597;-53
2022/11/20 11:08:15;;;;;;;3.40;3.10;;;5.90;99.90;;;;;;5030270;28;20232;-52
2022/11/20 11:10:50;;;;;;;3.00;2.70;;;5.80;99.90;;;;;;5030326;28;20470;-52
2022/11/20 11:13:22;;;;;;;3.17;2.97;;;5.60;99.90;;;;;;5029566;28;20490;-51
2022/11/20 11:15:50;;;;;;;3.30;2.87;;;5.50;99.90;;;;;;5030051;28;20466;-51
2022/11/20 11:18:26;;;;;;;4.00;3.40;;;5.40;99.90;;;;;;5030527;28;20228;-52
2022/11/20 11:20:56;;;;;;;3.87;3.57;;;5.50;99.90;;;;;;5030133;28;20481;-50
2022/11/20 11:23:32;;;;;;;3.63;3.33;;;5.50;99.90;;;;;;5030058;28;20269;-51
2022/11/20 11:26:02;;;;;;;3.47;3.17;;;5.50;99.90;;;;;;5030680;28;20246;-53
2022/11/20 11:28:30;;;;;;;3.50;3.20;;;5.40;99.90;;;;;;5030398;28;20478;-51
2022/11/20 11:30:58;;;;;;;3.70;3.40;;;5.30;99.90;;;;;;5030801;28;20272;-49
2022/11/20 11:33:28;;;;;;;3.40;3.20;;;5.10;99.90;;;;;;5029846;28;20500;-49
2022/11/20 11:35:58;;;;;;;3.50;3.20;;;5.10;99.90;;;;;;5029223;28;20497;-49
2022/11/20 11:38:34;;;;;;;3.60;3.30;;;5.10;99.90;;;;;;5029935;28;20520;-53
2022/11/20 11:41:03;;;;;;;6.37;3.20;;;5.10;99.90;;;;;;5029506;28;20466;-50
2022/11/20 11:46:30;;;;;;;3.90;3.27;;;5.00;99.90;;;;;;5029816;28;20478;-52
2022/11/20 11:49:02;;;;;;;4.00;3.70;;;5.00;99.90;;;;;;5029785;28;20467;-53
2022/11/20 11:51:36;;;;;;;3.97;3.30;;;5.00;99.90;;;;;;5030019;28;20474;-53
2022/11/20 11:54:15;;;;;;;3.90;3.33;;;5.10;99.90;;;;;;5029550;28;20465;-51
2022/11/20 11:56:43;;;;;;;2.70;2.50;;;5.20;99.90;;;;;;5029393;28;20280;-52
2022/11/20 11:59:17;;;;;;;2.60;2.40;;;5.40;99.90;;;;;;5029464;28;20866;-53
2022/11/20 12:01:51;;;;;;;3.20;2.90;;;5.40;99.90;;;;;;5028991;28;20958;-52
2022/11/20 12:04:30;;;;;;;2.93;2.63;;;5.50;99.90;;;;;;5028486;28;20577;-52
2022/11/20 12:07:04;;;;;;;3.07;2.80;;;5.60;99.90;;;;;;5029436;28;20474;-51
2022/11/20 12:09:55;;;;;;;2.80;2.60;;;5.60;99.90;;;;;;5028883;28;20482;-52
2022/11/20 12:12:28;;;;;;;4.25;3.95;;;5.50;99.90;;;;;;5028301;28;20461;-52
2022/11/20 12:14:58;;;;;;;4.07;3.70;;;5.30;99.90;;;;;;5029582;28;20246;-52
2022/11/20 12:17:26;;;;;;;4.30;3.90;;;5.10;99.90;;;;;;5029218;28;20473;-52
2022/11/20 12:19:54;;;;;;;4.10;3.70;;;5.00;99.90;;;;;;5029257;28;20474;-51
2022/11/20 12:22:30;;;;;;;4.60;4.20;;;4.90;99.90;;;;;;5028950;28;20474;-54
2022/11/20 12:25:06;;;;;;;4.57;4.20;;;4.90;99.90;;;;;;5029626;28;20945;-52
2022/11/20 12:27:50;;;;;;;4.57;4.10;;;4.80;99.90;;;;;;5029189;28;20529;-49
2022/11/20 12:30:20;;;;;;;4.90;4.50;;;4.70;99.90;;;;;;5027884;28;20489;-51
2022/11/20 12:33:24;;;;;;;4.83;4.37;;;4.70;99.90;;;;;;5028152;28;20491;-55
2022/11/20 12:36:07;;;;;;;5.43;4.93;;;4.60;99.90;;;;;;5004638;28;20478;-53
2022/11/20 12:38:58;;;;;;;4.83;4.43;;;4.60;99.90;;;;;;5028835;28;20541;-52
2022/11/20 12:47:50;;;;;;;5.90;5.40;;;4.70;99.90;;;;;;5027905;28;20509;-52
2022/11/20 12:50:29;;;;;;;5.80;5.30;;;4.70;99.90;;;;;;5027742;28;20519;-52
2022/11/20 12:53:05;;;;;;;4.90;4.50;;;4.80;99.90;;;;;;5028962;28;20892;-52
2022/11/20 12:55:50;;;;;;;4.93;4.50;;;4.90;99.90;;;;;;5028403;28;20485;-52
2022/11/20 12:58:28;;;;;;;4.70;4.30;;;4.80;99.90;;;;;;5026538;28;20482;-50
2022/11/20 13:01:04;;;;;;;4.77;4.00;;;4.80;99.90;;;;;;5028096;28;20535;-52
2022/11/20 13:03:44;;;;;;;4.33;3.93;;;4.80;99.90;;;;;;5028128;28;20463;-51
2022/11/20 13:06:16;;;;;;;4.63;3.80;;;4.70;99.90;;;;;;5028431;28;20480;-50
2022/11/20 13:08:50;;;;;;;3.97;3.57;;;4.60;99.90;;;;;;5028246;28;20958;-52
2022/11/20 13:11:24;;;;;;;4.50;4.10;;;4.60;99.90;;;;;;5027687;28;20469;-52
2022/11/20 13:14:25;;;;;;;4.73;3.53;;;4.60;99.90;;;;;;5033188;28;20489;-52
2022/11/20 13:16:57;;;;;;;4.37;3.97;;;4.70;99.90;;;;;;5033333;28;20472;-53
2022/11/20 13:19:33;;;;;;;4.27;3.93;;;4.60;99.90;;;;;;5033324;28;20476;-50
2022/11/20 13:22:01;;;;;;;4.17;3.77;;;4.70;99.90;;;;;;5033645;28;20455;-50
2022/11/20 13:24:31;;;;;;;4.97;4.47;;;4.70;99.90;;;;;;5015878;28;20478;-50
2022/11/20 13:27:19;;;;;;;4.37;3.97;;;4.80;99.90;;;;;;5013480;28;20459;-51
2022/11/20 13:30:12;;;;;;;4.20;3.80;;;4.90;99.90;;;;;;5014936;28;20460;-52
2022/11/20 13:32:49;;;;;;;4.00;3.67;;;5.00;99.90;;;;;;5050511;28;20819;-52
2022/11/20 13:35:27;;;;;;;4.70;4.20;;;5.10;99.90;;;;;;5048489;28;20470;-52